Accueil
METAR-TAF:

METAR-TAF

Aéroports :

St Athan, Pays de Galles

latitude: 51-24N, longitude: 003-26W, altitude: 50 m

Observation

Le bulletin a été fait il y a 1 heure et 11 minutes, à 17:50 UTC
Vent 12 kt de ouest
Température 10°C
Humidité 66%
Pression 1033 hPa
Visibilité 10 km ou plus

METAR: EGDX 261750Z AUTO 28012KT 9999 NCD 10/04 Q1033

Heure: 19:01 (19:01 UTC)

Prévision

Le bulletin a été fait il y a 5 heures et 11 minutes, à 13:50 UTC
Prévision valable du 26 à 15 UTC au 26 à 18 UTC
Vent 8 kt de ouest
Visibilité 10 km ou plus
Quelques nuages à une hauteur de 3000 ft

TAF: EGDX 261350Z 2615/2618 26008KT 9999 FEW030

Observations et prévisions météorologiques de plus de 4000 aéroports (messages METAR et TAF).

Les stations disponibles sont représentées par des disques jaunes et rouges sur la carte.

Passer la souris dessus pour voir le nom de la station.

Cliquer dessus pour voir les observations et prévisions météorologiques.

Pour changer de carte: cliquez sur les boutons verts avec une croix noire pour zoomer, sur le bouton vert avec un tiret pour effectuer un zoom arrière, ou sur les flèches vertes pour les cartes adjacentes.


METAR-TAF: